Time;durP1;ratioP1;P1;durP2;ratioP2;P2;SDS_P1;SDS_P2;PMS_P1;PMS_P2;Temp;Humidity;BMP_temperature;BMP_pressure;BME280_temperature;BME280_humidity;BME280_pressure;Samples;Min_cycle;Max_cycle;Signal;HPM_P1;HPM_P2
2023/07/21 00:02:06;;;;;;;24.42;19.95;;;;;;;;;;5035474;28;20100;-77
2023/07/21 00:04:32;;;;;;;25.27;19.35;;;;;;;;;;5037088;28;20033;-77
2023/07/21 00:06:58;;;;;;;23.05;18.33;;;;;;;;;;5051962;28;20041;-78
2023/07/21 00:09:24;;;;;;;28.77;23.23;;;;;;;;;;5033944;28;20033;-79
2023/07/21 00:11:50;;;;;;;38.85;19.77;;;;;;;;;;5034487;28;20113;-76
2023/07/21 00:14:19;;;;;;;19.95;16.73;;;;;;;;;;5051529;28;20336;-77
2023/07/21 00:16:45;;;;;;;20.90;17.20;;;;;;;;;;5035409;28;20033;-76
2023/07/21 00:19:10;;;;;;;22.85;17.15;;;;;;;;;;5032560;28;20039;-78
2023/07/21 00:21:37;;;;;;;18.90;15.68;;;;;;;;;;5029407;28;20040;-78
2023/07/21 00:24:03;;;;;;;21.05;18.02;;;;;;;;;;5029971;28;20052;-76
2023/07/21 00:26:30;;;;;;;19.95;16.92;;;;;;;;;;5051111;28;20370;-79
2023/07/21 00:28:57;;;;;;;19.30;16.50;;;;;;;;;;5030184;28;20057;-79
2023/07/21 00:31:23;;;;;;;17.98;14.75;;;;;;;;;;5033613;28;20025;-77
2023/07/21 00:33:49;;;;;;;23.92;18.70;;;;;;;;;;5035533;28;20033;-79
2023/07/21 00:36:14;;;;;;;22.73;19.50;;;;;;;;;;5031789;28;20038;-77
2023/07/21 00:38:40;;;;;;;26.00;20.48;;;;;;;;;;5031386;28;20041;-79
2023/07/21 00:41:07;;;;;;;24.63;20.58;;;;;;;;;;5029868;28;20045;-77
2023/07/21 00:43:33;;;;;;;21.90;18.17;;;;;;;;;;5025035;28;20037;-78
2023/07/21 00:45:59;;;;;;;21.05;18.17;;;;;;;;;;5024917;28;20037;-79
2023/07/21 00:48:25;;;;;;;24.55;21.08;;;;;;;;;;5024541;28;20076;-79
2023/07/21 00:50:52;;;;;;;23.58;20.83;;;;;;;;;;5023636;28;20029;-78
2023/07/21 00:53:19;;;;;;;22.65;17.10;;;;;;;;;;5040230;28;20095;-78
2023/07/21 00:55:47;;;;;;;22.13;17.65;;;;;;;;;;5024992;28;20041;-78
2023/07/21 00:58:13;;;;;;;18.92;16.23;;;;;;;;;;5024877;28;20048;-76
2023/07/21 01:00:42;;;;;;;21.52;17.88;;;;;;;;;;5022783;28;21012;-79
2023/07/21 01:03:12;;;;;;;23.45;20.38;;;;;;;;;;5023804;28;20041;-77
2023/07/21 01:05:43;;;;;;;25.70;20.67;;;;;;;;;;5024552;28;20091;-78
2023/07/21 01:08:11;;;;;;;24.25;20.73;;;;;;;;;;5022896;28;20033;-78
2023/07/21 01:10:38;;;;;;;24.58;20.10;;;;;;;;;;5024856;28;20128;-77
2023/07/21 01:13:05;;;;;;;22.05;18.17;;;;;;;;;;5041893;28;20030;-77
2023/07/21 01:15:31;;;;;;;26.48;20.50;;;;;;;;;;5026459;28;20136;-77
2023/07/21 01:17:58;;;;;;;25.23;20.85;;;;;;;;;;5024416;28;20037;-78
2023/07/21 01:20:27;;;;;;;21.65;18.23;;;;;;;;;;5041372;28;20083;-78
2023/07/21 01:22:54;;;;;;;20.35;18.20;;;;;;;;;;5025515;28;20053;-78
2023/07/21 01:25:20;;;;;;;21.52;19.23;;;;;;;;;;5040856;28;20037;-78
2023/07/21 01:27:49;;;;;;;19.38;16.80;;;;;;;;;;5023978;28;20362;-78
2023/07/21 01:30:16;;;;;;;21.50;18.10;;;;;;;;;;5042933;28;20041;-79
2023/07/21 01:32:44;;;;;;;22.42;17.95;;;;;;;;;;5025061;28;20129;-79
2023/07/21 01:35:11;;;;;;;20.58;18.08;;;;;;;;;;5022407;28;20123;-79
2023/07/21 01:37:38;;;;;;;24.77;20.52;;;;;;;;;;5022759;28;20037;-79
2023/07/21 01:40:07;;;;;;;24.83;18.50;;;;;;;;;;5023183;28;20049;-78
2023/07/21 01:42:34;;;;;;;24.17;21.45;;;;;;;;;;5026150;28;20083;-79
2023/07/21 01:45:02;;;;;;;24.33;20.88;;;;;;;;;;5024468;28;20047;-78
2023/07/21 01:47:31;;;;;;;28.75;21.77;;;;;;;;;;5023002;28;20074;-80
2023/07/21 01:50:00;;;;;;;25.55;20.75;;;;;;;;;;5025291;28;20179;-79
2023/07/21 01:52:33;;;;;;;24.52;20.40;;;;;;;;;;5020876;28;20056;-79
2023/07/21 01:55:06;;;;;;;26.00;21.02;;;;;;;;;;5023685;28;20029;-78
2023/07/21 01:57:37;;;;;;;26.33;20.90;;;;;;;;;;5022948;28;20117;-78
2023/07/21 02:00:06;;;;;;;23.58;18.20;;;;;;;;;;5021811;28;20087;-78
2023/07/21 02:02:35;;;;;;;26.70;18.58;;;;;;;;;;5019967;28;20148;-78
2023/07/21 02:05:01;;;;;;;25.77;20.00;;;;;;;;;;5022473;28;20068;-76
2023/07/21 02:07:27;;;;;;;21.60;19.20;;;;;;;;;;5023074;28;20041;-78
2023/07/21 02:09:56;;;;;;;28.23;20.63;;;;;;;;;;5023646;28;21630;-79
2023/07/21 02:12:24;;;;;;;22.80;19.98;;;;;;;;;;5025220;28;20051;-78
2023/07/21 02:14:50;;;;;;;26.27;20.95;;;;;;;;;;5039817;28;20034;-80
2023/07/21 02:17:16;;;;;;;32.05;20.23;;;;;;;;;;5023788;28;20860;-78
2023/07/21 02:19:42;;;;;;;29.38;22.02;;;;;;;;;;5040326;28;20040;-79
2023/07/21 02:22:12;;;;;;;28.00;22.58;;;;;;;;;;5022642;28;20037;-79
2023/07/21 02:24:41;;;;;;;28.83;21.88;;;;;;;;;;5022191;28;20037;-80
2023/07/21 02:27:07;;;;;;;25.83;21.90;;;;;;;;;;5023863;28;20116;-79
2023/07/21 02:29:36;;;;;;;22.75;19.02;;;;;;;;;;5038502;28;20064;-78
2023/07/21 02:32:01;;;;;;;24.50;19.50;;;;;;;;;;5023288;28;20457;-78
2023/07/21 02:34:27;;;;;;;24.95;20.25;;;;;;;;;;5044992;28;20037;-80
2023/07/21 02:36:53;;;;;;;25.88;20.35;;;;;;;;;;5026746;28;20365;-78
2023/07/21 02:39:19;;;;;;;23.42;19.27;;;;;;;;;;5026194;28;20049;-77
2023/07/21 02:41:46;;;;;;;25.05;19.35;;;;;;;;;;5027175;28;20040;-78
2023/07/21 02:44:12;;;;;;;22.73;19.52;;;;;;;;;;5026703;28;20038;-79
2023/07/21 02:46:38;;;;;;;26.27;18.60;;;;;;;;;;5044563;28;20050;-79
2023/07/21 02:49:07;;;;;;;25.25;20.40;;;;;;;;;;5027028;28;20064;-76
2023/07/21 02:51:33;;;;;;;26.15;20.88;;;;;;;;;;5029751;28;20040;-77
2023/07/21 02:53:59;;;;;;;28.67;22.45;;;;;;;;;;5026959;28;20025;-78
2023/07/21 02:56:25;;;;;;;31.92;24.23;;;;;;;;;;5026867;28;20048;-78
2023/07/21 02:58:51;;;;;;;40.90;28.13;;;;;;;;;;5027254;28;20114;-79
2023/07/21 03:01:18;;;;;;;37.03;27.50;;;;;;;;;;5027860;28;20037;-79
2023/07/21 03:03:44;;;;;;;39.63;28.25;;;;;;;;;;5026178;28;20041;-78
2023/07/21 03:06:10;;;;;;;35.30;28.50;;;;;;;;;;5027832;28;20698;-79
2023/07/21 03:08:36;;;;;;;39.55;29.83;;;;;;;;;;5025298;28;20152;-78
2023/07/21 03:11:02;;;;;;;36.60;28.08;;;;;;;;;;5031595;28;20061;-79
2023/07/21 03:13:28;;;;;;;44.55;28.35;;;;;;;;;;5043684;28;20158;-79
2023/07/21 03:15:56;;;;;;;34.95;26.30;;;;;;;;;;5024641;28;20565;-79
2023/07/21 03:18:24;;;;;;;31.83;24.70;;;;;;;;;;5022158;28;20726;-79
2023/07/21 03:20:57;;;;;;;33.10;25.00;;;;;;;;;;5024440;28;20041;-79
2023/07/21 03:23:23;;;;;;;33.95;24.60;;;;;;;;;;5026285;28;20045;-79
2023/07/21 03:25:49;;;;;;;34.97;25.00;;;;;;;;;;5040941;28;20113;-79
2023/07/21 03:28:15;;;;;;;35.78;26.48;;;;;;;;;;5039810;28;20025;-77
2023/07/21 03:30:45;;;;;;;40.38;28.33;;;;;;;;;;5026099;28;20065;-79
2023/07/21 03:33:11;;;;;;;35.55;27.52;;;;;;;;;;5024913;28;20070;-79
2023/07/21 03:35:39;;;;;;;38.15;27.35;;;;;;;;;;5025886;28;20469;-78
2023/07/21 03:38:07;;;;;;;38.95;27.67;;;;;;;;;;5026194;28;20041;-78
2023/07/21 03:40:33;;;;;;;37.65;28.20;;;;;;;;;;5023322;28;20069;-79
2023/07/21 03:42:59;;;;;;;34.55;27.23;;;;;;;;;;5025904;28;20068;-78
2023/07/21 03:45:26;;;;;;;39.47;28.88;;;;;;;;;;5025563;28;20033;-78
2023/07/21 03:47:52;;;;;;;37.67;27.67;;;;;;;;;;5023614;28;20041;-78
2023/07/21 03:50:23;;;;;;;41.47;29.15;;;;;;;;;;5021655;28;21623;-79
2023/07/21 03:52:49;;;;;;;41.95;31.50;;;;;;;;;;5026104;28;20037;-77
2023/07/21 03:55:17;;;;;;;45.17;31.55;;;;;;;;;;5041122;28;20041;-79
2023/07/21 03:57:43;;;;;;;50.72;33.45;;;;;;;;;;5026236;28;20042;-78
2023/07/21 04:00:09;;;;;;;49.75;33.95;;;;;;;;;;5025647;28;20052;-80
2023/07/21 04:02:35;;;;;;;44.22;33.05;;;;;;;;;;5024630;28;20033;-79
2023/07/21 04:05:03;;;;;;;47.88;33.70;;;;;;;;;;5024799;28;20115;-79
2023/07/21 04:07:29;;;;;;;49.55;34.25;;;;;;;;;;5024642;28;20357;-78
2023/07/21 04:09:55;;;;;;;50.15;35.20;;;;;;;;;;5024431;28;20037;-77
2023/07/21 04:12:21;;;;;;;41.00;31.52;;;;;;;;;;5041322;28;20048;-79
2023/07/21 04:14:47;;;;;;;49.72;31.25;;;;;;;;;;5025188;28;20037;-78
2023/07/21 04:17:13;;;;;;;42.10;31.30;;;;;;;;;;5024544;28;20092;-79
2023/07/21 04:19:39;;;;;;;45.38;32.50;;;;;;;;;;5024336;28;20029;-79
2023/07/21 04:22:05;;;;;;;51.30;35.05;;;;;;;;;;5021926;28;20029;-78
2023/07/21 04:24:33;;;;;;;40.92;30.77;;;;;;;;;;5019704;28;20042;-79
2023/07/21 04:26:59;;;;;;;59.15;34.13;;;;;;;;;;5024163;28;20033;-78
2023/07/21 04:29:25;;;;;;;47.95;34.00;;;;;;;;;;5024370;28;20033;-80
2023/07/21 04:31:54;;;;;;;52.13;35.35;;;;;;;;;;5022593;28;20059;-79
2023/07/21 04:34:20;;;;;;;54.45;35.95;;;;;;;;;;5024749;28;20037;-79
2023/07/21 04:36:49;;;;;;;52.55;35.03;;;;;;;;;;5023214;28;20033;-79
2023/07/21 04:39:17;;;;;;;65.38;39.63;;;;;;;;;;5023641;28;20061;-76
2023/07/21 04:41:44;;;;;;;56.63;38.00;;;;;;;;;;5023724;28;20116;-78
2023/07/21 04:44:13;;;;;;;51.83;35.88;;;;;;;;;;5024313;28;20033;-79
2023/07/21 04:46:39;;;;;;;58.15;36.38;;;;;;;;;;5023680;28;20052;-79
2023/07/21 04:49:07;;;;;;;55.90;36.80;;;;;;;;;;5022359;28;20744;-79
2023/07/21 04:51:33;;;;;;;54.72;37.85;;;;;;;;;;5041666;28;20412;-74
2023/07/21 04:53:59;;;;;;;62.75;39.53;;;;;;;;;;5034781;28;20097;-79
2023/07/21 04:56:26;;;;;;;56.65;35.47;;;;;;;;;;5036258;28;20061;-79
2023/07/21 04:58:53;;;;;;;62.67;39.58;;;;;;;;;;5029985;28;20060;-77
2023/07/21 05:01:19;;;;;;;59.38;38.30;;;;;;;;;;5027420;28;20458;-76
2023/07/21 05:03:45;;;;;;;58.95;37.25;;;;;;;;;;5026631;28;20044;-79
2023/07/21 05:06:15;;;;;;;55.20;36.42;;;;;;;;;;5023240;28;20321;-78
2023/07/21 05:08:41;;;;;;;46.60;33.63;;;;;;;;;;5020129;28;20041;-78
2023/07/21 05:11:09;;;;;;;49.53;35.60;;;;;;;;;;5021687;28;20075;-78
2023/07/21 05:13:36;;;;;;;47.35;34.65;;;;;;;;;;5030632;28;20049;-74
2023/07/21 05:16:02;;;;;;;47.28;33.63;;;;;;;;;;5047793;28;20039;-75
2023/07/21 05:18:28;;;;;;;44.30;32.50;;;;;;;;;;5064872;28;20040;-75
2023/07/21 05:20:54;;;;;;;49.17;34.25;;;;;;;;;;5048373;28;20022;-74
2023/07/21 05:23:22;;;;;;;49.92;35.22;;;;;;;;;;5050192;28;20102;-75
2023/07/21 05:25:48;;;;;;;53.97;36.70;;;;;;;;;;5047720;28;20049;-76
2023/07/21 05:28:17;;;;;;;45.33;33.67;;;;;;;;;;5048325;28;20136;-76
2023/07/21 05:30:43;;;;;;;55.80;37.53;;;;;;;;;;5050310;28;20044;-74
2023/07/21 05:33:09;;;;;;;47.85;35.00;;;;;;;;;;5055486;28;20029;-77
2023/07/21 05:35:38;;;;;;;56.70;37.38;;;;;;;;;;5024897;28;20365;-78
2023/07/21 05:38:04;;;;;;;49.83;33.28;;;;;;;;;;5020121;28;20036;-78
2023/07/21 05:40:30;;;;;;;49.00;35.30;;;;;;;;;;5021999;28;20029;-77
2023/07/21 05:42:55;;;;;;;48.08;34.75;;;;;;;;;;5022636;28;20041;-78
2023/07/21 05:45:21;;;;;;;46.00;33.67;;;;;;;;;;5020928;28;20505;-78
2023/07/21 05:47:50;;;;;;;44.80;31.75;;;;;;;;;;5025079;28;20033;-77
2023/07/21 05:50:16;;;;;;;50.05;32.40;;;;;;;;;;5017065;28;20030;-77
2023/07/21 05:52:45;;;;;;;42.05;32.00;;;;;;;;;;5027555;28;20029;-76
2023/07/21 05:55:11;;;;;;;43.20;29.98;;;;;;;;;;5019389;28;20822;-78
2023/07/21 05:57:39;;;;;;;37.28;30.95;;;;;;;;;;5020727;28;20477;-78
2023/07/21 06:00:06;;;;;;;38.67;31.02;;;;;;;;;;5021991;28;20037;-76
2023/07/21 06:02:33;;;;;;;40.47;32.55;;;;;;;;;;5021138;28;20122;-78
2023/07/21 06:04:59;;;;;;;38.58;30.27;;;;;;;;;;5022821;28;20055;-78
2023/07/21 06:07:25;;;;;;;36.83;29.83;;;;;;;;;;5019230;28;20439;-78
2023/07/21 06:09:51;;;;;;;40.55;30.55;;;;;;;;;;5021933;28;20034;-77
2023/07/21 06:12:17;;;;;;;40.58;30.50;;;;;;;;;;5022148;28;20438;-79
2023/07/21 06:14:45;;;;;;;41.28;31.88;;;;;;;;;;5021814;28;20037;-77
2023/07/21 06:17:11;;;;;;;40.15;32.00;;;;;;;;;;5022743;28;20065;-78
2023/07/21 06:19:37;;;;;;;41.00;30.95;;;;;;;;;;5037242;28;20084;-76
2023/07/21 06:22:06;;;;;;;41.17;31.23;;;;;;;;;;5022628;28;20555;-76
2023/07/21 06:24:34;;;;;;;42.92;29.45;;;;;;;;;;5023239;28;20033;-76
2023/07/21 06:27:00;;;;;;;33.03;27.25;;;;;;;;;;5021677;28;20033;-78
2023/07/21 06:29:26;;;;;;;44.28;32.08;;;;;;;;;;5037187;28;20033;-76
2023/07/21 06:31:53;;;;;;;41.47;28.90;;;;;;;;;;5019493;28;20037;-77
2023/07/21 06:34:22;;;;;;;35.67;27.48;;;;;;;;;;5022613;28;20025;-78
2023/07/21 06:36:48;;;;;;;33.50;25.67;;;;;;;;;;5022079;28;20041;-79
2023/07/21 06:39:14;;;;;;;38.00;26.02;;;;;;;;;;5022108;28;20032;-77
2023/07/21 06:41:40;;;;;;;34.38;24.80;;;;;;;;;;5018966;28;20642;-79
2023/07/21 06:44:06;;;;;;;31.33;24.25;;;;;;;;;;5020498;28;20033;-79
2023/07/21 06:46:32;;;;;;;28.98;22.20;;;;;;;;;;5037076;28;20354;-77
2023/07/21 06:48:59;;;;;;;27.55;22.15;;;;;;;;;;5022111;28;20113;-78
2023/07/21 06:51:25;;;;;;;31.40;23.58;;;;;;;;;;5036551;28;20116;-78
2023/07/21 06:53:52;;;;;;;24.30;20.17;;;;;;;;;;5020063;28;20089;-79
2023/07/21 06:56:18;;;;;;;28.75;20.73;;;;;;;;;;5022105;28;20102;-77
2023/07/21 06:58:44;;;;;;;26.30;20.17;;;;;;;;;;5020986;28;20045;-75
2023/07/21 07:01:10;;;;;;;28.23;19.80;;;;;;;;;;5020534;28;20034;-77
2023/07/21 07:03:36;;;;;;;24.77;20.33;;;;;;;;;;5019414;28;20033;-76
2023/07/21 07:06:02;;;;;;;26.17;19.85;;;;;;;;;;5019759;28;20037;-76
2023/07/21 07:08:28;;;;;;;25.98;20.00;;;;;;;;;;5020808;28;20053;-77
2023/07/21 07:10:54;;;;;;;25.83;20.23;;;;;;;;;;5019822;28;20033;-75
2023/07/21 07:13:20;;;;;;;28.90;20.20;;;;;;;;;;5019897;28;20103;-75
2023/07/21 07:15:50;;;;;;;28.02;21.45;;;;;;;;;;5019705;28;20462;-77
2023/07/21 07:18:16;;;;;;;27.90;22.77;;;;;;;;;;5023051;28;20040;-75
2023/07/21 07:20:51;;;;;;;28.17;22.75;;;;;;;;;;5024724;28;20037;-76
2023/07/21 07:23:18;;;;;;;29.13;22.45;;;;;;;;;;5023612;28;21705;-77
2023/07/21 07:25:48;;;;;;;33.15;23.90;;;;;;;;;;5024740;28;20086;-77
2023/07/21 07:28:15;;;;;;;28.23;24.23;;;;;;;;;;5022461;28;20078;-76
2023/07/21 07:30:44;;;;;;;32.10;25.05;;;;;;;;;;5023700;28;20034;-76
2023/07/21 07:33:14;;;;;;;31.25;23.73;;;;;;;;;;5039679;28;20124;-75
2023/07/21 07:35:50;;;;;;;32.78;25.77;;;;;;;;;;5040351;28;20497;-76
2023/07/21 07:38:20;;;;;;;32.05;25.92;;;;;;;;;;5022826;28;20103;-75
2023/07/21 07:40:49;;;;;;;30.30;24.42;;;;;;;;;;5023669;28;20145;-75
2023/07/21 07:43:15;;;;;;;27.00;23.25;;;;;;;;;;5024025;28;21633;-76
2023/07/21 07:45:41;;;;;;;28.67;23.77;;;;;;;;;;5024011;28;20129;-76
2023/07/21 07:48:07;;;;;;;33.70;24.55;;;;;;;;;;5023647;28;20034;-76
2023/07/21 07:50:53;;;;;;;27.83;22.30;;;;;;;;;;5025007;28;20695;-77
2023/07/21 07:53:23;;;;;;;24.60;21.35;;;;;;;;;;5022705;28;20037;-75
2023/07/21 07:55:49;;;;;;;27.23;20.38;;;;;;;;;;5023868;28;20040;-77
2023/07/21 07:58:15;;;;;;;27.10;20.33;;;;;;;;;;5025017;28;20094;-76
2023/07/21 08:00:41;;;;;;;25.10;22.08;;;;;;;;;;5022753;28;20042;-77
2023/07/21 08:03:09;;;;;;;23.27;19.38;;;;;;;;;;5022818;28;20041;-73
2023/07/21 08:05:35;;;;;;;23.67;18.80;;;;;;;;;;5022857;28;20106;-76
2023/07/21 08:08:02;;;;;;;23.77;17.45;;;;;;;;;;5026244;28;20038;-76
2023/07/21 08:10:31;;;;;;;21.35;17.63;;;;;;;;;;5023373;28;20032;-76
2023/07/21 08:12:58;;;;;;;25.23;17.42;;;;;;;;;;5026160;28;20086;-76
2023/07/21 08:15:24;;;;;;;28.65;17.80;;;;;;;;;;5023387;28;20087;-76
2023/07/21 08:17:51;;;;;;;21.77;16.30;;;;;;;;;;5021965;28;20351;-75
2023/07/21 08:20:18;;;;;;;19.77;16.13;;;;;;;;;;5022081;28;20450;-77
2023/07/21 08:22:47;;;;;;;20.67;15.32;;;;;;;;;;5022561;28;20045;-75
2023/07/21 08:25:18;;;;;;;22.77;15.23;;;;;;;;;;5022359;28;20683;-76
2023/07/21 08:27:44;;;;;;;20.52;17.00;;;;;;;;;;5023543;28;20057;-76
2023/07/21 08:30:11;;;;;;;20.65;15.02;;;;;;;;;;5021903;28;20041;-77
2023/07/21 08:32:38;;;;;;;23.40;14.48;;;;;;;;;;5022479;28;20528;-76
2023/07/21 08:35:05;;;;;;;17.73;13.55;;;;;;;;;;5021998;28;20121;-76
2023/07/21 08:37:31;;;;;;;18.50;14.18;;;;;;;;;;5021971;28;20051;-75
2023/07/21 08:39:57;;;;;;;19.52;13.55;;;;;;;;;;5018701;28;20038;-76
2023/07/21 08:42:24;;;;;;;15.80;14.15;;;;;;;;;;5022049;28;20033;-75
2023/07/21 08:44:52;;;;;;;20.70;13.07;;;;;;;;;;5022611;28;20119;-77
2023/07/21 08:47:19;;;;;;;14.50;12.73;;;;;;;;;;5021781;28;20152;-77
2023/07/21 08:49:45;;;;;;;18.50;13.88;;;;;;;;;;5022780;28;20029;-77
2023/07/21 08:52:11;;;;;;;17.98;13.90;;;;;;;;;;5021877;28;20034;-75
2023/07/21 08:54:37;;;;;;;15.98;12.95;;;;;;;;;;5020732;28;20044;-76
2023/07/21 08:57:03;;;;;;;15.40;12.45;;;;;;;;;;5021878;28;20033;-77
2023/07/21 08:59:29;;;;;;;16.45;12.73;;;;;;;;;;5022205;28;20033;-74
2023/07/21 09:01:55;;;;;;;15.85;13.18;;;;;;;;;;5022434;28;20983;-77
2023/07/21 09:04:22;;;;;;;15.40;11.20;;;;;;;;;;5022774;28;20120;-77
2023/07/21 09:06:51;;;;;;;12.48;11.15;;;;;;;;;;5020182;28;20049;-76
2023/07/21 09:09:18;;;;;;;11.23;9.73;;;;;;;;;;5021714;28;20366;-77
2023/07/21 09:11:43;;;;;;;13.60;11.77;;;;;;;;;;5021990;28;20619;-75
2023/07/21 09:14:09;;;;;;;15.57;11.15;;;;;;;;;;5022339;28;20029;-77
2023/07/21 09:16:38;;;;;;;12.50;10.70;;;;;;;;;;5024449;28;20029;-75
2023/07/21 09:19:06;;;;;;;15.57;10.50;;;;;;;;;;5040282;28;20042;-76
2023/07/21 09:21:36;;;;;;;13.32;11.57;;;;;;;;;;5037827;28;20120;-76
2023/07/21 09:24:03;;;;;;;14.90;12.45;;;;;;;;;;5021855;28;20465;-76
2023/07/21 09:26:29;;;;;;;11.30;10.10;;;;;;;;;;5037420;28;20068;-76
2023/07/21 09:28:57;;;;;;;11.43;9.05;;;;;;;;;;5021145;28;20615;-76
2023/07/21 09:31:31;;;;;;;13.57;9.63;;;;;;;;;;5021679;28;20160;-78
2023/07/21 09:34:05;;;;;;;14.23;9.65;;;;;;;;;;5020883;28;20026;-75
2023/07/21 09:36:31;;;;;;;13.80;10.20;;;;;;;;;;5021471;28;20040;-77
2023/07/21 09:39:00;;;;;;;8.73;6.50;;;;;;;;;;5021768;28;20029;-76
2023/07/21 09:41:26;;;;;;;7.60;6.20;;;;;;;;;;5017022;28;20703;-76
2023/07/21 09:43:56;;;;;;;8.70;7.28;;;;;;;;;;5021765;28;20442;-75
2023/07/21 09:46:25;;;;;;;7.85;7.05;;;;;;;;;;5019369;28;20041;-76
2023/07/21 09:48:51;;;;;;;7.85;6.97;;;;;;;;;;5021105;28;20021;-75
2023/07/21 09:51:19;;;;;;;10.95;7.85;;;;;;;;;;5025351;28;20025;-78
2023/07/21 09:53:48;;;;;;;16.02;10.25;;;;;;;;;;5021574;28;20041;-77
2023/07/21 09:56:14;;;;;;;11.73;10.52;;;;;;;;;;5019626;28;20666;-77
2023/07/21 09:58:51;;;;;;;11.55;10.02;;;;;;;;;;5036712;28;20606;-75
2023/07/21 10:01:18;;;;;;;14.05;9.32;;;;;;;;;;5021928;28;20037;-77
2023/07/21 10:03:44;;;;;;;10.63;8.40;;;;;;;;;;5021021;28;20032;-78
2023/07/21 10:06:11;;;;;;;7.82;6.35;;;;;;;;;;5022444;28;20481;-75
2023/07/21 10:08:38;;;;;;;8.85;7.68;;;;;;;;;;5021856;28;20033;-76
2023/07/21 10:11:05;;;;;;;8.35;6.57;;;;;;;;;;5023311;28;20043;-77
2023/07/21 10:13:34;;;;;;;8.18;6.60;;;;;;;;;;5020919;28;20045;-75
2023/07/21 10:16:01;;;;;;;12.88;6.38;;;;;;;;;;5020263;28;20354;-76
2023/07/21 10:18:27;;;;;;;10.68;7.60;;;;;;;;;;5019018;28;20057;-77
2023/07/21 10:20:55;;;;;;;12.15;6.55;;;;;;;;;;5021946;28;20454;-75
2023/07/21 10:23:30;;;;;;;7.53;6.25;;;;;;;;;;5022741;28;20072;-75
2023/07/21 10:26:04;;;;;;;7.05;6.07;;;;;;;;;;5022438;28;20040;-75
2023/07/21 10:28:42;;;;;;;7.25;5.57;;;;;;;;;;5024488;28;20025;-76
2023/07/21 10:31:24;;;;;;;5.40;3.83;;;;;;;;;;5020790;28;20029;-75
2023/07/21 10:34:05;;;;;;;5.80;3.90;;;;;;;;;;5020747;28;20682;-78
2023/07/21 10:36:50;;;;;;;10.48;4.55;;;;;;;;;;5020523;28;20063;-78
2023/07/21 10:39:20;;;;;;;5.00;4.22;;;;;;;;;;5036144;28;21576;-76
2023/07/21 10:41:47;;;;;;;7.03;4.45;;;;;;;;;;5020371;28;20480;-77
2023/07/21 10:44:13;;;;;;;7.55;5.13;;;;;;;;;;5017149;28;20070;-78
2023/07/21 10:46:40;;;;;;;7.97;4.30;;;;;;;;;;5020383;28;20057;-78
2023/07/21 10:49:06;;;;;;;6.60;4.50;;;;;;;;;;5020478;28;20393;-77
2023/07/21 10:51:34;;;;;;;3.63;3.15;;;;;;;;;;5021261;28;20064;-78
2023/07/21 10:54:00;;;;;;;6.00;3.80;;;;;;;;;;5024948;28;20113;-76
2023/07/21 10:56:27;;;;;;;8.15;5.40;;;;;;;;;;5024653;28;20043;-76
2023/07/21 10:58:53;;;;;;;5.93;4.07;;;;;;;;;;5023956;28;20030;-77
2023/07/21 11:01:20;;;;;;;4.60;4.20;;;;;;;;;;5023700;28;20365;-77
2023/07/21 11:03:46;;;;;;;6.10;3.90;;;;;;;;;;5023311;28;20045;-76
2023/07/21 11:06:13;;;;;;;5.32;3.78;;;;;;;;;;5040317;28;20060;-75
2023/07/21 11:08:39;;;;;;;5.53;3.38;;;;;;;;;;5024195;28;20034;-78
2023/07/21 11:11:06;;;;;;;4.90;3.95;;;;;;;;;;5024061;28;20039;-78
2023/07/21 11:13:32;;;;;;;7.43;3.78;;;;;;;;;;5024208;28;20018;-75
2023/07/21 11:16:00;;;;;;;5.57;3.60;;;;;;;;;;5024484;28;20148;-77
2023/07/21 11:18:28;;;;;;;6.30;3.55;;;;;;;;;;5023904;28;20086;-78
2023/07/21 11:20:54;;;;;;;5.57;3.05;;;;;;;;;;5023551;28;20129;-78
2023/07/21 11:23:24;;;;;;;6.15;2.78;;;;;;;;;;5023413;28;20120;-78
2023/07/21 11:26:10;;;;;;;5.40;2.85;;;;;;;;;;5023911;28;20025;-77
2023/07/21 11:28:38;;;;;;;5.15;2.70;;;;;;;;;;5023204;28;20132;-75
2023/07/21 11:31:12;;;;;;;3.03;2.70;;;;;;;;;;5022801;28;20088;-77
2023/07/21 11:33:49;;;;;;;2.95;2.30;;;;;;;;;;5024074;28;20044;-75
2023/07/21 11:36:21;;;;;;;4.47;2.80;;;;;;;;;;5019900;28;20029;-77
2023/07/21 11:39:04;;;;;;;4.00;2.42;;;;;;;;;;5024634;28;20096;-78
2023/07/21 11:41:37;;;;;;;5.25;1.90;;;;;;;;;;5023461;28;20450;-76
2023/07/21 11:44:05;;;;;;;6.30;2.60;;;;;;;;;;5020288;28;20037;-77
2023/07/21 11:46:31;;;;;;;3.50;2.50;;;;;;;;;;5023611;28;20053;-78
2023/07/21 11:48:58;;;;;;;4.07;2.42;;;;;;;;;;5023817;28;20116;-76
2023/07/21 11:51:26;;;;;;;4.38;2.72;;;;;;;;;;5019742;28;20438;-76
2023/07/21 11:53:57;;;;;;;5.50;2.60;;;;;;;;;;5019962;28;20318;-77
2023/07/21 11:56:23;;;;;;;4.70;2.50;;;;;;;;;;5023677;28;20438;-76
2023/07/21 11:58:49;;;;;;;4.55;2.42;;;;;;;;;;5022593;28;20048;-77
2023/07/21 12:01:15;;;;;;;4.72;2.47;;;;;;;;;;5022369;28;20040;-76
2023/07/21 12:03:41;;;;;;;12.60;2.50;;;;;;;;;;5022379;28;20107;-76
2023/07/21 12:06:10;;;;;;;3.33;2.40;;;;;;;;;;5027524;28;20449;-77
2023/07/21 12:08:36;;;;;;;4.30;2.20;;;;;;;;;;5022457;28;20505;-77
2023/07/21 12:11:02;;;;;;;3.53;2.30;;;;;;;;;;5022729;28;20029;-79
2023/07/21 12:13:28;;;;;;;6.50;2.45;;;;;;;;;;5021227;28;20029;-76
2023/07/21 12:15:54;;;;;;;2.60;1.85;;;;;;;;;;5022955;28;20099;-77
2023/07/21 12:18:23;;;;;;;3.22;1.80;;;;;;;;;;5022747;28;20037;-77
2023/07/21 12:20:48;;;;;;;5.05;2.78;;;;;;;;;;5029978;28;20358;-75
2023/07/21 12:23:14;;;;;;;3.78;2.63;;;;;;;;;;5022461;28;20036;-77
2023/07/21 12:25:40;;;;;;;5.25;1.70;;;;;;;;;;5038854;28;20045;-76
2023/07/21 12:28:06;;;;;;;4.82;2.17;;;;;;;;;;5023925;28;20057;-77
2023/07/21 12:30:35;;;;;;;4.93;1.73;;;;;;;;;;5022240;28;20116;-78
2023/07/21 12:33:01;;;;;;;5.22;2.00;;;;;;;;;;5022723;28;20034;-78
2023/07/21 12:35:29;;;;;;;4.00;2.35;;;;;;;;;;5022334;28;20040;-78
2023/07/21 12:37:55;;;;;;;5.55;1.95;;;;;;;;;;5025328;28;20041;-76
2023/07/21 12:40:21;;;;;;;3.67;2.33;;;;;;;;;;5022355;28;20099;-74
2023/07/21 12:42:50;;;;;;;5.47;2.17;;;;;;;;;;5025730;28;20025;-77
2023/07/21 12:45:15;;;;;;;5.70;2.05;;;;;;;;;;5023094;28;20785;-77
2023/07/21 12:47:41;;;;;;;3.88;1.58;;;;;;;;;;5022520;28;20112;-75
2023/07/21 12:50:07;;;;;;;3.85;1.60;;;;;;;;;;5022049;28;20480;-74
2023/07/21 12:52:33;;;;;;;4.65;1.80;;;;;;;;;;5022697;28;20049;-77
2023/07/21 12:55:00;;;;;;;4.75;1.27;;;;;;;;;;5021566;28;20036;-76
2023/07/21 12:57:28;;;;;;;2.80;1.27;;;;;;;;;;5022488;28;20117;-77
2023/07/21 12:59:54;;;;;;;11.35;2.05;;;;;;;;;;5021013;28;20029;-77
2023/07/21 13:02:20;;;;;;;5.30;0.80;;;;;;;;;;5021384;28;20033;-77
2023/07/21 13:04:51;;;;;;;1.73;0.98;;;;;;;;;;5021628;28;20103;-77
2023/07/21 13:07:19;;;;;;;2.00;0.93;;;;;;;;;;5020241;28;20044;-74
2023/07/21 13:09:48;;;;;;;2.60;1.08;;;;;;;;;;5037891;28;20452;-77
2023/07/21 13:12:14;;;;;;;4.88;1.20;;;;;;;;;;5021214;28;20033;-76
2023/07/21 13:14:40;;;;;;;6.35;1.30;;;;;;;;;;5020854;28;20022;-77
2023/07/21 13:17:09;;;;;;;4.18;0.85;;;;;;;;;;5021787;28;20038;-75
2023/07/21 13:19:35;;;;;;;3.80;0.90;;;;;;;;;;5021572;28;20172;-77
2023/07/21 13:22:01;;;;;;;3.80;1.08;;;;;;;;;;5021278;28;20385;-76
2023/07/21 13:24:27;;;;;;;3.00;0.80;;;;;;;;;;5018298;28;20056;-77
2023/07/21 13:26:54;;;;;;;3.65;0.80;;;;;;;;;;5021329;28;20078;-77
2023/07/21 13:29:22;;;;;;;36.13;3.22;;;;;;;;;;5020581;28;20036;-78
2023/07/21 13:31:51;;;;;;;38.33;4.60;;;;;;;;;;5021437;28;20051;-76
2023/07/21 13:34:18;;;;;;;66.35;6.43;;;;;;;;;;5021621;28;20021;-78
2023/07/21 13:36:44;;;;;;;52.42;5.95;;;;;;;;;;5021643;28;20025;-76
2023/07/21 13:39:10;;;;;;;40.85;5.32;;;;;;;;;;5021943;28;20080;-76
2023/07/21 13:41:36;;;;;;;26.10;4.65;;;;;;;;;;5018472;28;20120;-77
2023/07/21 13:44:02;;;;;;;13.80;3.95;;;;;;;;;;5021780;28;20036;-78
2023/07/21 13:46:30;;;;;;;20.05;3.97;;;;;;;;;;5021347;28;20033;-74
2023/07/21 13:48:57;;;;;;;8.90;2.95;;;;;;;;;;5018562;28;20029;-76
2023/07/21 13:51:23;;;;;;;5.53;2.28;;;;;;;;;;5021340;28;20025;-75
2023/07/21 13:53:51;;;;;;;9.05;1.95;;;;;;;;;;5020536;28;20040;-77
2023/07/21 13:56:18;;;;;;;3.15;2.25;;;;;;;;;;5037661;28;20538;-76
2023/07/21 13:58:47;;;;;;;6.38;1.88;;;;;;;;;;5020929;28;20033;-75
2023/07/21 14:01:15;;;;;;;1.60;1.20;;;;;;;;;;5019390;28;20242;-77
2023/07/21 14:03:42;;;;;;;3.45;1.42;;;;;;;;;;5037750;28;20454;-78
2023/07/21 14:06:08;;;;;;;3.58;1.10;;;;;;;;;;5021553;28;20033;-78
2023/07/21 14:08:37;;;;;;;5.90;1.80;;;;;;;;;;5021246;28;20138;-74
2023/07/21 14:11:03;;;;;;;3.17;1.10;;;;;;;;;;5021389;28;20079;-76
2023/07/21 14:13:29;;;;;;;6.03;1.08;;;;;;;;;;5020413;28;20495;-78
2023/07/21 14:15:55;;;;;;;7.43;1.45;;;;;;;;;;5021373;28;20037;-82
2023/07/21 14:18:22;;;;;;;1.88;0.93;;;;;;;;;;5021353;28;20591;-77
2023/07/21 14:20:48;;;;;;;2.40;1.40;;;;;;;;;;5022325;28;20043;-75
2023/07/21 14:23:14;;;;;;;3.47;1.17;;;;;;;;;;5037524;28;20040;-77
2023/07/21 14:25:40;;;;;;;2.95;1.15;;;;;;;;;;5021393;28;20099;-79
2023/07/21 14:28:06;;;;;;;15.32;1.77;;;;;;;;;;5024369;28;20045;-75